Terminal Aerodrome Forecast
Issued by NWS Amarillo, TX

Home | Current Version | Previous Version | Text Only | Print | Product List | Glossary On
Versions: 1 2 3 4 5 6 7 8 9 10 11 12 13 14
000
FTUS44 KAMA 221734
TAFDHT
TAF
KDHT 221734Z 2218/2318 02015G23KT P6SM OVC006
     FM222100 05010KT P6SM BKN250
     FM230000 VRB06KT P6SM BKN025 OVC050
     FM230700 VRB06KT P6SM -SHRA BKN010 OVC020
     FM231200 12007KT P6SM BKN030=

USA.gov is the U.S. government's official web portal to all federal, state and local government web resources and services.